sensor_id;sensor_type;location;lat;lon;timestamp;P1;durP1;ratioP1;P2;durP2;ratioP2
16031;SDS011;8120;48.308;8.914;2023-03-04T00:00:32;38.50;;;21.87;;
16031;SDS011;8120;48.308;8.914;2023-03-04T00:02:59;37.90;;;22.13;;
16031;SDS011;8120;48.308;8.914;2023-03-04T00:05:27;39.90;;;23.57;;
16031;SDS011;8120;48.308;8.914;2023-03-04T00:07:56;35.83;;;21.07;;
16031;SDS011;8120;48.308;8.914;2023-03-04T00:10:24;40.47;;;22.13;;
16031;SDS011;8120;48.308;8.914;2023-03-04T00:12:52;35.20;;;18.27;;
16031;SDS011;8120;48.308;8.914;2023-03-04T00:15:21;31.30;;;18.67;;
16031;SDS011;8120;48.308;8.914;2023-03-04T00:17:48;38.47;;;19.70;;
16031;SDS011;8120;48.308;8.914;2023-03-04T00:20:16;36.37;;;20.37;;
16031;SDS011;8120;48.308;8.914;2023-03-04T00:22:44;36.20;;;20.63;;
16031;SDS011;8120;48.308;8.914;2023-03-04T00:25:13;35.53;;;20.70;;
16031;SDS011;8120;48.308;8.914;2023-03-04T00:27:41;38.03;;;20.17;;
16031;SDS011;8120;48.308;8.914;2023-03-04T00:30:09;34.50;;;20.97;;
16031;SDS011;8120;48.308;8.914;2023-03-04T00:32:39;37.47;;;21.77;;
16031;SDS011;8120;48.308;8.914;2023-03-04T00:35:07;36.17;;;21.73;;
16031;SDS011;8120;48.308;8.914;2023-03-04T00:37:35;39.23;;;21.67;;
16031;SDS011;8120;48.308;8.914;2023-03-04T00:40:03;39.57;;;20.30;;
16031;SDS011;8120;48.308;8.914;2023-03-04T00:42:32;36.10;;;20.37;;
16031;SDS011;8120;48.308;8.914;2023-03-04T00:45:00;37.23;;;19.00;;
16031;SDS011;8120;48.308;8.914;2023-03-04T00:47:28;36.00;;;20.43;;
16031;SDS011;8120;48.308;8.914;2023-03-04T00:49:57;40.23;;;20.97;;
16031;SDS011;8120;48.308;8.914;2023-03-04T00:52:25;44.47;;;24.53;;
16031;SDS011;8120;48.308;8.914;2023-03-04T00:54:53;80.73;;;38.20;;
16031;SDS011;8120;48.308;8.914;2023-03-04T00:57:20;74.60;;;37.03;;
16031;SDS011;8120;48.308;8.914;2023-03-04T00:59:48;56.93;;;29.20;;
16031;SDS011;8120;48.308;8.914;2023-03-04T01:02:16;43.57;;;24.37;;
16031;SDS011;8120;48.308;8.914;2023-03-04T01:04:45;40.00;;;22.87;;
16031;SDS011;8120;48.308;8.914;2023-03-04T01:07:14;43.27;;;21.37;;
16031;SDS011;8120;48.308;8.914;2023-03-04T01:09:42;40.10;;;21.27;;
16031;SDS011;8120;48.308;8.914;2023-03-04T01:12:09;36.07;;;19.60;;
16031;SDS011;8120;48.308;8.914;2023-03-04T01:14:38;38.07;;;21.23;;
16031;SDS011;8120;48.308;8.914;2023-03-04T01:17:06;39.10;;;24.00;;
16031;SDS011;8120;48.308;8.914;2023-03-04T01:19:33;44.90;;;24.53;;
16031;SDS011;8120;48.308;8.914;2023-03-04T01:22:01;45.77;;;25.67;;
16031;SDS011;8120;48.308;8.914;2023-03-04T01:24:30;42.17;;;24.50;;
16031;SDS011;8120;48.308;8.914;2023-03-04T01:26:58;45.70;;;24.40;;
16031;SDS011;8120;48.308;8.914;2023-03-04T01:29:26;49.63;;;24.93;;
16031;SDS011;8120;48.308;8.914;2023-03-04T01:31:55;46.47;;;25.03;;
16031;SDS011;8120;48.308;8.914;2023-03-04T01:34:23;45.07;;;24.13;;
16031;SDS011;8120;48.308;8.914;2023-03-04T01:36:51;44.10;;;21.47;;
16031;SDS011;8120;48.308;8.914;2023-03-04T01:39:19;45.80;;;23.53;;
16031;SDS011;8120;48.308;8.914;2023-03-04T01:41:48;38.20;;;21.07;;
16031;SDS011;8120;48.308;8.914;2023-03-04T01:44:16;38.83;;;22.27;;
16031;SDS011;8120;48.308;8.914;2023-03-04T01:46:46;40.37;;;22.10;;
16031;SDS011;8120;48.308;8.914;2023-03-04T01:49:17;39.50;;;22.03;;
16031;SDS011;8120;48.308;8.914;2023-03-04T01:51:47;41.37;;;22.23;;
16031;SDS011;8120;48.308;8.914;2023-03-04T01:54:17;34.80;;;21.10;;
16031;SDS011;8120;48.308;8.914;2023-03-04T01:56:49;40.10;;;23.03;;
16031;SDS011;8120;48.308;8.914;2023-03-04T01:59:19;42.77;;;22.50;;
16031;SDS011;8120;48.308;8.914;2023-03-04T02:01:48;40.87;;;20.83;;
16031;SDS011;8120;48.308;8.914;2023-03-04T02:04:18;36.87;;;21.07;;
16031;SDS011;8120;48.308;8.914;2023-03-04T02:06:48;38.60;;;20.10;;
16031;SDS011;8120;48.308;8.914;2023-03-04T02:09:17;36.37;;;19.13;;
16031;SDS011;8120;48.308;8.914;2023-03-04T02:11:45;38.40;;;20.60;;
16031;SDS011;8120;48.308;8.914;2023-03-04T02:14:15;38.53;;;21.37;;
16031;SDS011;8120;48.308;8.914;2023-03-04T02:16:44;36.07;;;19.87;;
16031;SDS011;8120;48.308;8.914;2023-03-04T02:19:15;35.23;;;20.73;;
16031;SDS011;8120;48.308;8.914;2023-03-04T02:21:49;41.00;;;21.70;;
16031;SDS011;8120;48.308;8.914;2023-03-04T02:24:18;43.87;;;23.70;;
16031;SDS011;8120;48.308;8.914;2023-03-04T02:26:54;37.77;;;22.20;;
16031;SDS011;8120;48.308;8.914;2023-03-04T02:29:22;40.30;;;21.67;;
16031;SDS011;8120;48.308;8.914;2023-03-04T02:31:50;41.70;;;23.07;;
16031;SDS011;8120;48.308;8.914;2023-03-04T02:34:21;47.87;;;24.97;;
16031;SDS011;8120;48.308;8.914;2023-03-04T02:36:51;41.90;;;22.63;;
16031;SDS011;8120;48.308;8.914;2023-03-04T02:39:21;43.90;;;23.33;;
16031;SDS011;8120;48.308;8.914;2023-03-04T02:41:55;41.53;;;24.83;;
16031;SDS011;8120;48.308;8.914;2023-03-04T02:44:23;45.00;;;24.17;;
16031;SDS011;8120;48.308;8.914;2023-03-04T02:46:53;42.30;;;22.97;;
16031;SDS011;8120;48.308;8.914;2023-03-04T02:49:22;38.80;;;22.30;;
16031;SDS011;8120;48.308;8.914;2023-03-04T02:51:51;41.40;;;23.23;;
16031;SDS011;8120;48.308;8.914;2023-03-04T02:54:25;40.57;;;22.33;;
16031;SDS011;8120;48.308;8.914;2023-03-04T02:56:53;42.73;;;23.13;;
16031;SDS011;8120;48.308;8.914;2023-03-04T02:59:23;42.17;;;23.73;;
16031;SDS011;8120;48.308;8.914;2023-03-04T03:01:52;50.13;;;25.17;;
16031;SDS011;8120;48.308;8.914;2023-03-04T03:04:20;47.60;;;23.80;;
16031;SDS011;8120;48.308;8.914;2023-03-04T03:06:49;43.20;;;24.80;;
16031;SDS011;8120;48.308;8.914;2023-03-04T03:09:17;44.87;;;23.37;;
16031;SDS011;8120;48.308;8.914;2023-03-04T03:11:45;42.73;;;21.97;;
16031;SDS011;8120;48.308;8.914;2023-03-04T03:14:15;40.50;;;25.60;;
16031;SDS011;8120;48.308;8.914;2023-03-04T03:16:43;51.00;;;25.07;;
16031;SDS011;8120;48.308;8.914;2023-03-04T03:19:11;43.03;;;24.23;;
16031;SDS011;8120;48.308;8.914;2023-03-04T03:21:38;49.30;;;24.50;;
16031;SDS011;8120;48.308;8.914;2023-03-04T03:24:06;42.90;;;22.90;;
16031;SDS011;8120;48.308;8.914;2023-03-04T03:26:34;43.80;;;23.97;;
16031;SDS011;8120;48.308;8.914;2023-03-04T03:29:02;46.87;;;25.33;;
16031;SDS011;8120;48.308;8.914;2023-03-04T03:31:31;40.33;;;22.63;;
16031;SDS011;8120;48.308;8.914;2023-03-04T03:33:59;37.20;;;22.27;;
16031;SDS011;8120;48.308;8.914;2023-03-04T03:36:27;39.10;;;23.07;;
16031;SDS011;8120;48.308;8.914;2023-03-04T03:38:55;41.43;;;22.90;;
16031;SDS011;8120;48.308;8.914;2023-03-04T03:41:23;36.03;;;22.03;;
16031;SDS011;8120;48.308;8.914;2023-03-04T03:43:51;49.70;;;24.60;;
16031;SDS011;8120;48.308;8.914;2023-03-04T03:46:18;42.57;;;24.93;;
16031;SDS011;8120;48.308;8.914;2023-03-04T03:48:48;43.70;;;25.37;;
16031;SDS011;8120;48.308;8.914;2023-03-04T03:51:15;49.10;;;25.77;;
16031;SDS011;8120;48.308;8.914;2023-03-04T03:53:43;45.27;;;24.43;;
16031;SDS011;8120;48.308;8.914;2023-03-04T03:56:11;44.33;;;25.00;;
16031;SDS011;8120;48.308;8.914;2023-03-04T03:58:39;49.30;;;24.80;;
16031;SDS011;8120;48.308;8.914;2023-03-04T04:01:07;44.20;;;24.90;;
16031;SDS011;8120;48.308;8.914;2023-03-04T04:03:34;44.13;;;24.70;;
16031;SDS011;8120;48.308;8.914;2023-03-04T04:06:04;44.30;;;25.37;;
16031;SDS011;8120;48.308;8.914;2023-03-04T04:08:32;43.90;;;23.03;;
16031;SDS011;8120;48.308;8.914;2023-03-04T04:11:00;50.43;;;25.10;;
16031;SDS011;8120;48.308;8.914;2023-03-04T04:13:28;47.60;;;25.57;;
16031;SDS011;8120;48.308;8.914;2023-03-04T04:15:56;45.73;;;23.80;;
16031;SDS011;8120;48.308;8.914;2023-03-04T04:18:24;43.23;;;23.70;;
16031;SDS011;8120;48.308;8.914;2023-03-04T04:20:52;40.57;;;23.50;;
16031;SDS011;8120;48.308;8.914;2023-03-04T04:23:22;45.13;;;24.97;;
16031;SDS011;8120;48.308;8.914;2023-03-04T04:25:50;48.13;;;25.40;;
16031;SDS011;8120;48.308;8.914;2023-03-04T04:28:17;44.17;;;23.43;;
16031;SDS011;8120;48.308;8.914;2023-03-04T04:30:45;46.30;;;25.10;;
16031;SDS011;8120;48.308;8.914;2023-03-04T04:33:13;44.43;;;24.50;;
16031;SDS011;8120;48.308;8.914;2023-03-04T04:35:41;51.77;;;25.77;;
16031;SDS011;8120;48.308;8.914;2023-03-04T04:38:09;49.50;;;23.83;;
16031;SDS011;8120;48.308;8.914;2023-03-04T04:40:39;45.83;;;23.37;;
16031;SDS011;8120;48.308;8.914;2023-03-04T04:43:08;44.43;;;25.47;;
16031;SDS011;8120;48.308;8.914;2023-03-04T04:45:35;51.43;;;24.63;;
16031;SDS011;8120;48.308;8.914;2023-03-04T04:48:04;48.83;;;26.00;;
16031;SDS011;8120;48.308;8.914;2023-03-04T04:50:32;51.03;;;25.97;;
16031;SDS011;8120;48.308;8.914;2023-03-04T04:52:59;52.33;;;27.87;;
16031;SDS011;8120;48.308;8.914;2023-03-04T04:55:27;42.43;;;23.43;;
16031;SDS011;8120;48.308;8.914;2023-03-04T04:57:57;50.80;;;26.23;;
16031;SDS011;8120;48.308;8.914;2023-03-04T05:00:24;42.03;;;23.57;;
16031;SDS011;8120;48.308;8.914;2023-03-04T05:02:52;45.10;;;23.53;;
16031;SDS011;8120;48.308;8.914;2023-03-04T05:05:20;45.13;;;23.73;;
16031;SDS011;8120;48.308;8.914;2023-03-04T05:07:49;50.43;;;25.43;;
16031;SDS011;8120;48.308;8.914;2023-03-04T05:10:17;44.40;;;23.73;;
16031;SDS011;8120;48.308;8.914;2023-03-04T05:12:45;70.73;;;34.53;;
16031;SDS011;8120;48.308;8.914;2023-03-04T05:15:14;91.90;;;40.10;;
16031;SDS011;8120;48.308;8.914;2023-03-04T05:17:42;77.43;;;33.27;;
16031;SDS011;8120;48.308;8.914;2023-03-04T05:20:10;54.67;;;27.50;;
16031;SDS011;8120;48.308;8.914;2023-03-04T05:22:38;47.53;;;25.13;;
16031;SDS011;8120;48.308;8.914;2023-03-04T05:25:06;47.20;;;25.77;;
16031;SDS011;8120;48.308;8.914;2023-03-04T05:27:35;43.37;;;24.40;;
16031;SDS011;8120;48.308;8.914;2023-03-04T05:30:03;43.30;;;23.77;;
16031;SDS011;8120;48.308;8.914;2023-03-04T05:32:33;42.13;;;24.13;;
16031;SDS011;8120;48.308;8.914;2023-03-04T05:35:01;44.93;;;24.13;;
16031;SDS011;8120;48.308;8.914;2023-03-04T05:37:29;46.20;;;23.90;;
16031;SDS011;8120;48.308;8.914;2023-03-04T05:39:57;42.73;;;22.60;;
16031;SDS011;8120;48.308;8.914;2023-03-04T05:42:25;46.03;;;24.60;;
16031;SDS011;8120;48.308;8.914;2023-03-04T05:44:53;45.70;;;25.10;;
16031;SDS011;8120;48.308;8.914;2023-03-04T05:47:20;54.37;;;28.30;;
16031;SDS011;8120;48.308;8.914;2023-03-04T05:49:50;46.67;;;25.37;;
16031;SDS011;8120;48.308;8.914;2023-03-04T05:52:18;57.13;;;27.77;;
16031;SDS011;8120;48.308;8.914;2023-03-04T05:54:45;53.50;;;26.50;;
16031;SDS011;8120;48.308;8.914;2023-03-04T05:57:13;51.93;;;27.10;;
16031;SDS011;8120;48.308;8.914;2023-03-04T05:59:41;46.90;;;24.33;;
16031;SDS011;8120;48.308;8.914;2023-03-04T06:02:09;47.37;;;26.57;;
16031;SDS011;8120;48.308;8.914;2023-03-04T06:04:37;46.67;;;25.80;;
16031;SDS011;8120;48.308;8.914;2023-03-04T06:07:06;51.33;;;26.80;;
16031;SDS011;8120;48.308;8.914;2023-03-04T06:09:34;54.67;;;27.70;;
16031;SDS011;8120;48.308;8.914;2023-03-04T06:12:02;51.00;;;29.70;;
16031;SDS011;8120;48.308;8.914;2023-03-04T06:14:30;50.83;;;28.77;;
16031;SDS011;8120;48.308;8.914;2023-03-04T06:16:58;55.57;;;28.50;;
16031;SDS011;8120;48.308;8.914;2023-03-04T06:19:26;57.27;;;28.97;;
16031;SDS011;8120;48.308;8.914;2023-03-04T06:21:54;65.80;;;33.10;;
16031;SDS011;8120;48.308;8.914;2023-03-04T06:24:23;55.43;;;31.60;;
16031;SDS011;8120;48.308;8.914;2023-03-04T06:26:53;55.60;;;31.13;;
16031;SDS011;8120;48.308;8.914;2023-03-04T06:29:21;65.20;;;34.50;;
16031;SDS011;8120;48.308;8.914;2023-03-04T06:31:49;63.00;;;32.07;;
16031;SDS011;8120;48.308;8.914;2023-03-04T06:34:17;51.47;;;29.57;;
16031;SDS011;8120;48.308;8.914;2023-03-04T06:36:45;60.73;;;34.33;;
16031;SDS011;8120;48.308;8.914;2023-03-04T06:39:13;62.60;;;35.77;;
16031;SDS011;8120;48.308;8.914;2023-03-04T06:41:42;69.40;;;37.43;;
16031;SDS011;8120;48.308;8.914;2023-03-04T06:44:10;70.20;;;38.53;;
16031;SDS011;8120;48.308;8.914;2023-03-04T06:46:38;73.77;;;38.27;;
16031;SDS011;8120;48.308;8.914;2023-03-04T06:49:06;81.17;;;42.20;;
16031;SDS011;8120;48.308;8.914;2023-03-04T06:51:34;81.90;;;45.23;;
16031;SDS011;8120;48.308;8.914;2023-03-04T06:54:02;87.87;;;45.37;;
16031;SDS011;8120;48.308;8.914;2023-03-04T06:56:30;86.87;;;47.37;;
16031;SDS011;8120;48.308;8.914;2023-03-04T06:59:00;86.97;;;48.60;;
16031;SDS011;8120;48.308;8.914;2023-03-04T07:01:27;81.43;;;45.03;;
16031;SDS011;8120;48.308;8.914;2023-03-04T07:03:55;73.03;;;39.17;;
16031;SDS011;8120;48.308;8.914;2023-03-04T07:06:25;73.87;;;39.47;;
16031;SDS011;8120;48.308;8.914;2023-03-04T07:08:54;79.77;;;38.73;;
16031;SDS011;8120;48.308;8.914;2023-03-04T07:11:23;63.90;;;35.50;;
16031;SDS011;8120;48.308;8.914;2023-03-04T07:13:51;57.80;;;33.17;;
16031;SDS011;8120;48.308;8.914;2023-03-04T07:16:21;55.03;;;31.90;;
16031;SDS011;8120;48.308;8.914;2023-03-04T07:18:49;49.90;;;28.67;;
16031;SDS011;8120;48.308;8.914;2023-03-04T07:21:17;45.00;;;27.87;;
16031;SDS011;8120;48.308;8.914;2023-03-04T07:23:45;48.57;;;26.87;;
16031;SDS011;8120;48.308;8.914;2023-03-04T07:26:13;43.57;;;26.00;;
16031;SDS011;8120;48.308;8.914;2023-03-04T07:28:41;55.97;;;30.13;;
16031;SDS011;8120;48.308;8.914;2023-03-04T07:31:11;52.80;;;30.20;;
16031;SDS011;8120;48.308;8.914;2023-03-04T07:33:42;50.57;;;29.63;;
16031;SDS011;8120;48.308;8.914;2023-03-04T07:36:10;53.20;;;30.13;;
16031;SDS011;8120;48.308;8.914;2023-03-04T07:38:42;56.87;;;31.57;;
16031;SDS011;8120;48.308;8.914;2023-03-04T07:41:10;51.90;;;28.53;;
16031;SDS011;8120;48.308;8.914;2023-03-04T07:43:38;49.20;;;29.70;;
16031;SDS011;8120;48.308;8.914;2023-03-04T07:46:06;46.30;;;27.10;;
16031;SDS011;8120;48.308;8.914;2023-03-04T07:48:35;48.97;;;28.07;;
16031;SDS011;8120;48.308;8.914;2023-03-04T07:51:08;48.43;;;27.23;;
16031;SDS011;8120;48.308;8.914;2023-03-04T07:53:37;48.10;;;28.27;;
16031;SDS011;8120;48.308;8.914;2023-03-04T07:56:07;46.73;;;26.83;;
16031;SDS011;8120;48.308;8.914;2023-03-04T07:58:37;47.83;;;26.97;;
16031;SDS011;8120;48.308;8.914;2023-03-04T08:01:09;52.03;;;28.37;;
16031;SDS011;8120;48.308;8.914;2023-03-04T08:03:37;50.37;;;27.03;;
16031;SDS011;8120;48.308;8.914;2023-03-04T08:06:05;46.57;;;29.17;;
16031;SDS011;8120;48.308;8.914;2023-03-04T08:08:35;57.43;;;32.93;;
16031;SDS011;8120;48.308;8.914;2023-03-04T08:11:04;48.17;;;30.23;;
16031;SDS011;8120;48.308;8.914;2023-03-04T08:13:33;44.40;;;29.00;;
16031;SDS011;8120;48.308;8.914;2023-03-04T08:16:01;55.67;;;29.67;;
16031;SDS011;8120;48.308;8.914;2023-03-04T08:18:30;51.93;;;29.67;;
16031;SDS011;8120;48.308;8.914;2023-03-04T08:20:58;45.57;;;27.73;;
16031;SDS011;8120;48.308;8.914;2023-03-04T08:23:27;42.83;;;25.90;;
16031;SDS011;8120;48.308;8.914;2023-03-04T08:25:55;45.50;;;27.30;;
16031;SDS011;8120;48.308;8.914;2023-03-04T08:28:23;43.03;;;26.30;;
16031;SDS011;8120;48.308;8.914;2023-03-04T08:30:51;30.87;;;17.57;;
16031;SDS011;8120;48.308;8.914;2023-03-04T08:33:20;29.00;;;16.83;;
16031;SDS011;8120;48.308;8.914;2023-03-04T08:35:48;32.97;;;18.63;;
16031;SDS011;8120;48.308;8.914;2023-03-04T08:38:16;36.30;;;19.10;;
16031;SDS011;8120;48.308;8.914;2023-03-04T08:40:50;35.80;;;20.50;;
16031;SDS011;8120;48.308;8.914;2023-03-04T08:43:19;34.40;;;19.87;;
16031;SDS011;8120;48.308;8.914;2023-03-04T08:45:47;35.70;;;20.63;;
16031;SDS011;8120;48.308;8.914;2023-03-04T08:48:15;36.20;;;21.27;;
16031;SDS011;8120;48.308;8.914;2023-03-04T08:50:44;37.37;;;21.63;;
16031;SDS011;8120;48.308;8.914;2023-03-04T08:53:12;39.63;;;23.97;;
16031;SDS011;8120;48.308;8.914;2023-03-04T08:55:41;39.27;;;23.40;;
16031;SDS011;8120;48.308;8.914;2023-03-04T08:58:10;38.33;;;21.93;;
16031;SDS011;8120;48.308;8.914;2023-03-04T09:00:40;33.80;;;21.87;;
16031;SDS011;8120;48.308;8.914;2023-03-04T09:03:10;40.83;;;22.90;;
16031;SDS011;8120;48.308;8.914;2023-03-04T09:05:39;36.10;;;21.40;;
16031;SDS011;8120;48.308;8.914;2023-03-04T09:08:07;37.87;;;22.03;;
16031;SDS011;8120;48.308;8.914;2023-03-04T09:10:35;39.07;;;21.67;;
16031;SDS011;8120;48.308;8.914;2023-03-04T09:13:02;38.23;;;20.30;;
16031;SDS011;8120;48.308;8.914;2023-03-04T09:15:33;36.93;;;20.43;;
16031;SDS011;8120;48.308;8.914;2023-03-04T09:18:01;34.60;;;20.17;;
16031;SDS011;8120;48.308;8.914;2023-03-04T09:20:30;36.20;;;19.93;;
16031;SDS011;8120;48.308;8.914;2023-03-04T09:22:58;31.80;;;19.10;;
16031;SDS011;8120;48.308;8.914;2023-03-04T09:25:26;29.47;;;19.13;;
16031;SDS011;8120;48.308;8.914;2023-03-04T09:27:54;28.73;;;17.93;;
16031;SDS011;8120;48.308;8.914;2023-03-04T09:30:22;31.03;;;18.40;;
16031;SDS011;8120;48.308;8.914;2023-03-04T09:32:53;28.63;;;17.40;;
16031;SDS011;8120;48.308;8.914;2023-03-04T09:35:21;31.43;;;17.67;;
16031;SDS011;8120;48.308;8.914;2023-03-04T09:37:49;31.30;;;16.37;;
16031;SDS011;8120;48.308;8.914;2023-03-04T09:40:19;31.03;;;16.83;;
16031;SDS011;8120;48.308;8.914;2023-03-04T09:42:49;28.70;;;17.20;;
16031;SDS011;8120;48.308;8.914;2023-03-04T09:45:20;26.90;;;16.13;;
16031;SDS011;8120;48.308;8.914;2023-03-04T09:47:51;27.20;;;16.50;;
16031;SDS011;8120;48.308;8.914;2023-03-04T09:50:21;30.70;;;17.77;;
16031;SDS011;8120;48.308;8.914;2023-03-04T09:52:57;35.53;;;20.00;;
16031;SDS011;8120;48.308;8.914;2023-03-04T09:55:41;32.83;;;17.83;;
16031;SDS011;8120;48.308;8.914;2023-03-04T09:58:14;27.37;;;17.10;;
16031;SDS011;8120;48.308;8.914;2023-03-04T10:00:54;26.60;;;17.43;;
16031;SDS011;8120;48.308;8.914;2023-03-04T10:03:39;27.30;;;17.30;;
16031;SDS011;8120;48.308;8.914;2023-03-04T10:06:10;32.17;;;18.60;;
16031;SDS011;8120;48.308;8.914;2023-03-04T10:08:44;35.13;;;18.77;;
16031;SDS011;8120;48.308;8.914;2023-03-04T10:11:17;32.13;;;18.77;;
16031;SDS011;8120;48.308;8.914;2023-03-04T10:13:52;31.33;;;16.93;;
16031;SDS011;8120;48.308;8.914;2023-03-04T10:16:28;29.23;;;16.90;;
16031;SDS011;8120;48.308;8.914;2023-03-04T10:19:07;31.63;;;18.03;;
16031;SDS011;8120;48.308;8.914;2023-03-04T10:21:47;29.27;;;16.23;;
16031;SDS011;8120;48.308;8.914;2023-03-04T10:24:16;31.90;;;17.63;;
16031;SDS011;8120;48.308;8.914;2023-03-04T10:26:49;29.00;;;17.67;;
16031;SDS011;8120;48.308;8.914;2023-03-04T10:29:20;28.83;;;16.97;;
16031;SDS011;8120;48.308;8.914;2023-03-04T10:31:50;26.13;;;16.67;;
16031;SDS011;8120;48.308;8.914;2023-03-04T10:34:22;26.17;;;16.17;;
16031;SDS011;8120;48.308;8.914;2023-03-04T10:36:54;29.93;;;17.00;;
16031;SDS011;8120;48.308;8.914;2023-03-04T10:39:26;26.37;;;16.43;;
16031;SDS011;8120;48.308;8.914;2023-03-04T10:41:57;31.60;;;18.03;;
16031;SDS011;8120;48.308;8.914;2023-03-04T10:44:27;32.33;;;17.70;;
16031;SDS011;8120;48.308;8.914;2023-03-04T10:46:56;23.70;;;15.57;;
16031;SDS011;8120;48.308;8.914;2023-03-04T10:49:26;33.40;;;18.17;;
16031;SDS011;8120;48.308;8.914;2023-03-04T10:52:00;26.30;;;16.13;;
16031;SDS011;8120;48.308;8.914;2023-03-04T10:54:30;26.67;;;16.00;;
16031;SDS011;8120;48.308;8.914;2023-03-04T10:57:02;27.87;;;15.97;;
16031;SDS011;8120;48.308;8.914;2023-03-04T10:59:33;26.97;;;15.87;;
16031;SDS011;8120;48.308;8.914;2023-03-04T11:02:17;30.03;;;16.17;;
16031;SDS011;8120;48.308;8.914;2023-03-04T11:04:50;28.57;;;16.10;;
16031;SDS011;8120;48.308;8.914;2023-03-04T11:07:20;33.20;;;17.77;;
16031;SDS011;8120;48.308;8.914;2023-03-04T11:09:49;33.77;;;16.27;;
16031;SDS011;8120;48.308;8.914;2023-03-04T11:12:18;30.13;;;15.97;;
16031;SDS011;8120;48.308;8.914;2023-03-04T11:14:48;28.43;;;16.27;;
16031;SDS011;8120;48.308;8.914;2023-03-04T11:17:19;30.43;;;17.23;;
16031;SDS011;8120;48.308;8.914;2023-03-04T11:19:53;25.97;;;16.53;;
16031;SDS011;8120;48.308;8.914;2023-03-04T11:22:24;22.97;;;13.73;;
16031;SDS011;8120;48.308;8.914;2023-03-04T11:24:56;28.80;;;15.77;;
16031;SDS011;8120;48.308;8.914;2023-03-04T11:27:29;27.87;;;15.37;;
16031;SDS011;8120;48.308;8.914;2023-03-04T11:30:14;29.17;;;15.43;;
16031;SDS011;8120;48.308;8.914;2023-03-04T11:32:53;24.50;;;14.43;;
16031;SDS011;8120;48.308;8.914;2023-03-04T11:35:29;25.20;;;14.70;;
16031;SDS011;8120;48.308;8.914;2023-03-04T11:38:01;29.83;;;16.30;;
16031;SDS011;8120;48.308;8.914;2023-03-04T11:40:34;28.43;;;16.23;;
16031;SDS011;8120;48.308;8.914;2023-03-04T11:43:10;28.57;;;16.80;;
16031;SDS011;8120;48.308;8.914;2023-03-04T11:45:51;28.13;;;17.47;;
16031;SDS011;8120;48.308;8.914;2023-03-04T11:48:44;28.17;;;15.83;;
16031;SDS011;8120;48.308;8.914;2023-03-04T11:51:21;27.50;;;15.30;;
16031;SDS011;8120;48.308;8.914;2023-03-04T11:54:07;28.03;;;15.93;;
16031;SDS011;8120;48.308;8.914;2023-03-04T11:56:50;28.80;;;15.13;;
16031;SDS011;8120;48.308;8.914;2023-03-04T12:02:17;30.03;;;15.43;;
16031;SDS011;8120;48.308;8.914;2023-03-04T12:05:04;26.87;;;16.03;;
16031;SDS011;8120;48.308;8.914;2023-03-04T12:08:05;29.17;;;15.07;;
16031;SDS011;8120;48.308;8.914;2023-03-04T12:10:46;27.97;;;14.07;;
16031;SDS011;8120;48.308;8.914;2023-03-04T12:13:28;30.53;;;15.70;;
16031;SDS011;8120;48.308;8.914;2023-03-04T12:16:08;27.87;;;15.90;;
16031;SDS011;8120;48.308;8.914;2023-03-04T12:18:51;23.00;;;14.80;;
16031;SDS011;8120;48.308;8.914;2023-03-04T12:21:37;29.13;;;14.70;;
16031;SDS011;8120;48.308;8.914;2023-03-04T12:27:16;22.67;;;13.93;;
16031;SDS011;8120;48.308;8.914;2023-03-04T12:29:53;28.77;;;16.53;;
16031;SDS011;8120;48.308;8.914;2023-03-04T12:32:27;28.43;;;14.13;;
16031;SDS011;8120;48.308;8.914;2023-03-04T12:35:07;27.43;;;15.50;;
16031;SDS011;8120;48.308;8.914;2023-03-04T12:40:44;28.40;;;13.77;;
16031;SDS011;8120;48.308;8.914;2023-03-04T12:49:13;22.67;;;15.20;;
16031;SDS011;8120;48.308;8.914;2023-03-04T12:51:54;27.30;;;14.37;;
16031;SDS011;8120;48.308;8.914;2023-03-04T12:54:30;25.63;;;15.43;;
16031;SDS011;8120;48.308;8.914;2023-03-04T12:57:03;24.30;;;14.07;;
16031;SDS011;8120;48.308;8.914;2023-03-04T12:59:39;26.50;;;14.47;;
16031;SDS011;8120;48.308;8.914;2023-03-04T13:05:07;24.27;;;13.63;;
16031;SDS011;8120;48.308;8.914;2023-03-04T13:07:51;23.93;;;14.40;;
16031;SDS011;8120;48.308;8.914;2023-03-04T13:10:27;27.10;;;15.07;;
16031;SDS011;8120;48.308;8.914;2023-03-04T13:12:57;24.23;;;14.07;;
16031;SDS011;8120;48.308;8.914;2023-03-04T13:15:30;24.77;;;14.00;;
16031;SDS011;8120;48.308;8.914;2023-03-04T13:18:03;22.93;;;12.27;;
16031;SDS011;8120;48.308;8.914;2023-03-04T13:21:05;26.13;;;13.93;;
16031;SDS011;8120;48.308;8.914;2023-03-04T13:23:43;23.40;;;12.50;;
16031;SDS011;8120;48.308;8.914;2023-03-04T13:26:27;30.57;;;15.50;;
16031;SDS011;8120;48.308;8.914;2023-03-04T13:29:29;26.13;;;14.53;;
16031;SDS011;8120;48.308;8.914;2023-03-04T13:32:00;19.67;;;11.90;;
16031;SDS011;8120;48.308;8.914;2023-03-04T13:34:43;23.33;;;12.80;;
16031;SDS011;8120;48.308;8.914;2023-03-04T13:37:25;26.57;;;14.50;;
16031;SDS011;8120;48.308;8.914;2023-03-04T13:43:23;21.93;;;12.13;;
16031;SDS011;8120;48.308;8.914;2023-03-04T13:45:53;21.80;;;11.73;;
16031;SDS011;8120;48.308;8.914;2023-03-04T13:48:25;23.17;;;14.03;;
16031;SDS011;8120;48.308;8.914;2023-03-04T13:50:58;25.47;;;14.40;;
16031;SDS011;8120;48.308;8.914;2023-03-04T13:53:36;27.07;;;14.93;;
16031;SDS011;8120;48.308;8.914;2023-03-04T13:59:07;24.33;;;13.43;;
16031;SDS011;8120;48.308;8.914;2023-03-04T14:01:53;26.60;;;14.07;;
16031;SDS011;8120;48.308;8.914;2023-03-04T14:04:26;29.33;;;14.93;;
16031;SDS011;8120;48.308;8.914;2023-03-04T14:06:57;21.83;;;13.47;;
16031;SDS011;8120;48.308;8.914;2023-03-04T14:09:26;23.43;;;14.27;;
16031;SDS011;8120;48.308;8.914;2023-03-04T14:11:56;22.67;;;13.30;;
16031;SDS011;8120;48.308;8.914;2023-03-04T14:14:29;21.07;;;13.10;;
16031;SDS011;8120;48.308;8.914;2023-03-04T14:17:04;25.90;;;13.80;;
16031;SDS011;8120;48.308;8.914;2023-03-04T14:19:35;22.30;;;13.33;;
16031;SDS011;8120;48.308;8.914;2023-03-04T14:22:18;23.03;;;14.13;;
16031;SDS011;8120;48.308;8.914;2023-03-04T14:24:58;28.50;;;14.27;;
16031;SDS011;8120;48.308;8.914;2023-03-04T14:27:27;24.07;;;14.07;;
16031;SDS011;8120;48.308;8.914;2023-03-04T14:29:58;30.70;;;15.47;;
16031;SDS011;8120;48.308;8.914;2023-03-04T14:32:29;27.07;;;13.20;;
16031;SDS011;8120;48.308;8.914;2023-03-04T14:34:58;27.87;;;15.57;;
16031;SDS011;8120;48.308;8.914;2023-03-04T14:37:32;25.60;;;14.53;;
16031;SDS011;8120;48.308;8.914;2023-03-04T14:40:05;22.90;;;14.10;;
16031;SDS011;8120;48.308;8.914;2023-03-04T14:42:36;28.67;;;14.57;;
16031;SDS011;8120;48.308;8.914;2023-03-04T14:45:09;26.00;;;14.97;;
16031;SDS011;8120;48.308;8.914;2023-03-04T14:47:42;25.20;;;15.13;;
16031;SDS011;8120;48.308;8.914;2023-03-04T14:50:13;27.37;;;15.47;;
16031;SDS011;8120;48.308;8.914;2023-03-04T14:52:44;25.57;;;15.60;;
16031;SDS011;8120;48.308;8.914;2023-03-04T14:55:18;25.27;;;13.83;;
16031;SDS011;8120;48.308;8.914;2023-03-04T14:57:49;30.90;;;16.13;;
16031;SDS011;8120;48.308;8.914;2023-03-04T15:00:25;26.33;;;14.07;;
16031;SDS011;8120;48.308;8.914;2023-03-04T15:02:56;28.33;;;15.00;;
16031;SDS011;8120;48.308;8.914;2023-03-04T15:05:26;26.90;;;15.43;;
16031;SDS011;8120;48.308;8.914;2023-03-04T15:07:57;25.13;;;14.13;;
16031;SDS011;8120;48.308;8.914;2023-03-04T15:10:27;30.03;;;15.23;;
16031;SDS011;8120;48.308;8.914;2023-03-04T15:12:57;24.53;;;14.33;;
16031;SDS011;8120;48.308;8.914;2023-03-04T15:15:32;27.17;;;14.63;;
16031;SDS011;8120;48.308;8.914;2023-03-04T15:18:15;26.07;;;15.23;;